createdAt,value
2018-11-04T00:00:27.908Z,3.83
2018-11-04T00:02:57.906Z,3.83
2018-11-04T00:05:27.942Z,3.83
2018-11-04T00:07:57.999Z,3.84
2018-11-04T00:10:27.939Z,3.84
2018-11-04T00:12:57.975Z,3.84
2018-11-04T00:15:27.927Z,3.85
2018-11-04T00:17:57.894Z,3.85
2018-11-04T00:20:27.930Z,3.86
2018-11-04T00:22:57.866Z,3.86
2018-11-04T00:25:27.867Z,3.86
2018-11-04T00:27:57.829Z,3.86
2018-11-04T00:30:27.820Z,3.87
2018-11-04T00:32:57.750Z,3.88
2018-11-04T00:35:27.722Z,3.86
2018-11-04T00:37:57.677Z,3.89
2018-11-04T00:40:27.698Z,3.89
2018-11-04T00:42:57.680Z,3.89
2018-11-04T00:45:27.802Z,3.87
2018-11-04T00:47:57.671Z,3.88
2018-11-04T00:50:27.629Z,3.87
2018-11-04T00:52:57.594Z,3.88
2018-11-04T00:55:27.577Z,3.89
2018-11-04T00:57:57.540Z,3.89
2018-11-04T01:00:27.526Z,3.90
2018-11-04T01:02:57.527Z,3.92
2018-11-04T01:05:27.520Z,3.92
2018-11-04T01:07:57.522Z,3.93
2018-11-04T01:10:27.511Z,3.94
2018-11-04T01:12:57.541Z,3.96
2018-11-04T01:15:27.519Z,3.95
2018-11-04T01:17:57.479Z,3.97
2018-11-04T01:20:27.446Z,3.98
2018-11-04T01:22:57.447Z,3.98
2018-11-04T01:25:27.394Z,3.99
2018-11-04T01:27:57.359Z,3.99
2018-11-04T01:30:27.488Z,4.00
2018-11-04T01:32:57.432Z,4.00
2018-11-04T01:35:27.419Z,3.99
2018-11-04T01:37:57.419Z,4.01
2018-11-04T01:40:27.485Z,4.01
2018-11-04T01:42:57.527Z,4.01
2018-11-04T01:45:27.478Z,4.02
2018-11-04T01:47:57.422Z,4.02
2018-11-04T01:50:27.352Z,4.02
2018-11-04T01:52:57.330Z,4.03
2018-11-04T01:55:27.399Z,4.03
2018-11-04T01:57:57.419Z,4.06
2018-11-04T02:00:27.362Z,4.06
2018-11-04T02:02:57.309Z,4.09
2018-11-04T02:05:27.271Z,4.11
2018-11-04T02:07:57.246Z,4.13
2018-11-04T02:10:27.183Z,4.16
2018-11-04T02:12:57.189Z,4.18
2018-11-04T02:15:27.167Z,4.20
2018-11-04T02:17:57.135Z,4.20
2018-11-04T02:20:27.124Z,4.21
2018-11-04T02:22:57.120Z,4.22
2018-11-04T02:25:27.099Z,4.22
2018-11-04T02:27:57.056Z,4.25
2018-11-04T02:30:27.004Z,4.26
2018-11-04T02:32:56.939Z,4.28
2018-11-04T02:35:26.909Z,4.29
2018-11-04T02:37:56.858Z,4.31
2018-11-04T02:40:26.905Z,4.34
2018-11-04T02:42:56.798Z,4.37
2018-11-04T02:45:26.727Z,4.39
2018-11-04T02:47:56.648Z,4.44
2018-11-04T02:50:26.619Z,4.48
2018-11-04T02:52:56.891Z,4.52
2018-11-04T02:55:26.806Z,4.59
2018-11-04T02:57:56.794Z,4.64
2018-11-04T03:00:26.783Z,4.69
2018-11-04T03:02:56.695Z,4.74
2018-11-04T03:05:26.668Z,4.80
2018-11-04T03:07:56.651Z,4.85
2018-11-04T03:10:26.651Z,4.93
2018-11-04T03:12:56.650Z,4.98
2018-11-04T03:15:26.606Z,5.03
2018-11-04T03:17:56.590Z,5.08
2018-11-04T03:20:26.583Z,5.12
2018-11-04T03:22:56.595Z,5.15
2018-11-04T03:25:26.531Z,5.20
2018-11-04T03:27:56.521Z,5.23
2018-11-04T03:30:26.460Z,5.27
2018-11-04T03:32:56.501Z,5.30
2018-11-04T03:35:26.482Z,5.34
2018-11-04T03:37:56.484Z,5.37
2018-11-04T03:40:26.446Z,5.40
2018-11-04T03:42:56.405Z,5.44
2018-11-04T03:45:26.397Z,5.49
2018-11-04T03:47:56.396Z,5.54
2018-11-04T03:50:26.299Z,5.58
2018-11-04T03:53:00.261Z,5.62
2018-11-04T03:55:30.414Z,5.68
2018-11-04T03:58:00.702Z,5.74
2018-11-04T04:00:30.714Z,5.81
2018-11-04T04:03:00.665Z,5.88
2018-11-04T04:05:30.622Z,5.95
2018-11-04T04:08:00.595Z,6.02
2018-11-04T04:10:30.578Z,6.09
2018-11-04T04:13:01.090Z,6.17
2018-11-04T04:15:31.033Z,6.25
2018-11-04T04:18:01.015Z,6.32
2018-11-04T04:20:31.015Z,6.40
2018-11-04T04:23:00.945Z,6.49
2018-11-04T04:25:30.906Z,6.56
2018-11-04T04:28:00.890Z,6.64
2018-11-04T04:30:30.889Z,6.73
2018-11-04T04:33:00.869Z,6.81
2018-11-04T04:35:30.878Z,6.90
2018-11-04T04:38:00.809Z,6.96
2018-11-04T04:40:30.796Z,7.04
2018-11-04T04:43:00.796Z,7.11
2018-11-04T04:45:30.761Z,7.21
2018-11-04T04:48:00.744Z,7.28
2018-11-04T04:50:30.719Z,7.36
2018-11-04T04:53:00.658Z,7.45
2018-11-04T04:55:30.671Z,7.54
2018-11-04T04:58:00.655Z,7.64
2018-11-04T05:00:30.595Z,7.73
2018-11-04T05:03:00.560Z,7.82
2018-11-04T05:05:30.508Z,7.91
2018-11-04T05:08:00.430Z,8.02
2018-11-04T05:10:30.403Z,8.12
2018-11-04T05:13:00.339Z,8.22
2018-11-04T05:15:30.359Z,8.32
2018-11-04T05:18:00.328Z,8.42
2018-11-04T05:20:30.326Z,8.49
2018-11-04T05:23:00.306Z,8.58
2018-11-04T05:25:30.276Z,8.68
2018-11-04T05:28:00.185Z,8.77
2018-11-04T05:30:30.136Z,8.85
2018-11-04T05:33:00.072Z,8.92
2018-11-04T05:35:30.036Z,8.99
2018-11-04T05:38:00.092Z,9.04
2018-11-04T05:40:30.061Z,9.09
2018-11-04T05:43:00.011Z,9.15
2018-11-04T05:45:29.959Z,9.20
2018-11-04T05:47:59.940Z,9.26
2018-11-04T05:50:29.944Z,9.30
2018-11-04T05:53:00.273Z,9.36
2018-11-04T05:55:30.202Z,9.41
2018-11-04T05:58:00.142Z,9.44
2018-11-04T06:00:30.086Z,9.49
2018-11-04T06:03:00.054Z,9.52
2018-11-04T06:05:30.079Z,9.54
2018-11-04T06:08:00.096Z,9.58
2018-11-04T06:10:30.072Z,9.60
2018-11-04T06:12:59.990Z,9.65
2018-11-04T06:15:30.020Z,9.67
2018-11-04T06:18:00.036Z,9.70
2018-11-04T06:20:30.106Z,9.73
2018-11-04T06:23:00.111Z,9.77
2018-11-04T06:25:30.103Z,9.80
2018-11-04T06:28:00.052Z,9.83
2018-11-04T06:30:30.021Z,9.86
2018-11-04T06:32:59.990Z,9.89
2018-11-04T06:35:29.954Z,9.91
2018-11-04T06:37:59.963Z,9.94
2018-11-04T06:40:29.907Z,9.99
2018-11-04T06:42:59.934Z,10.00
2018-11-04T06:45:29.952Z,10.03
2018-11-04T06:47:59.974Z,10.06
2018-11-04T06:50:29.963Z,10.10
2018-11-04T06:53:00.039Z,10.14
2018-11-04T06:55:30.051Z,10.19
2018-11-04T06:58:00.083Z,10.26
2018-11-04T07:00:30.096Z,10.32
2018-11-04T07:03:00.103Z,10.39
2018-11-04T07:05:30.112Z,10.44
2018-11-04T07:08:00.166Z,10.50
2018-11-04T07:10:30.203Z,10.55
2018-11-04T07:13:00.220Z,10.63
2018-11-04T07:15:30.204Z,10.71
2018-11-04T07:18:00.218Z,10.78
2018-11-04T07:20:30.204Z,10.86
2018-11-04T07:23:00.240Z,10.92
2018-11-04T07:25:30.216Z,10.98
2018-11-04T07:28:00.200Z,11.05
2018-11-04T07:30:30.210Z,11.10
2018-11-04T07:33:00.182Z,11.16
2018-11-04T07:35:30.173Z,11.24
2018-11-04T07:38:00.196Z,11.29
2018-11-04T07:40:30.170Z,11.34
2018-11-04T07:43:00.290Z,11.39
2018-11-04T07:45:30.276Z,11.44
2018-11-04T07:48:00.323Z,11.50
2018-11-04T07:50:30.412Z,11.55
2018-11-04T07:53:00.376Z,11.60
2018-11-04T07:55:30.379Z,11.66
2018-11-04T07:58:00.334Z,11.70
2018-11-04T08:00:30.355Z,11.73
2018-11-04T08:03:00.385Z,11.77
2018-11-04T08:05:30.375Z,11.82
2018-11-04T08:08:00.395Z,11.85
2018-11-04T08:10:30.409Z,11.89
2018-11-04T08:13:00.440Z,11.95
2018-11-04T08:15:30.433Z,11.99
2018-11-04T08:18:00.438Z,12.02
2018-11-04T08:20:30.470Z,12.06
2018-11-04T08:23:00.490Z,12.09
2018-11-04T08:25:30.393Z,12.13
2018-11-04T08:28:00.386Z,12.17
2018-11-04T08:30:30.402Z,12.19
2018-11-04T08:33:00.398Z,12.23
2018-11-04T08:35:30.375Z,12.26
2018-11-04T08:38:00.380Z,12.28
2018-11-04T08:40:30.452Z,12.32
2018-11-04T08:43:00.422Z,12.35
2018-11-04T08:45:30.483Z,12.39
2018-11-04T08:48:00.467Z,12.44
2018-11-04T08:50:30.409Z,12.48
2018-11-04T08:53:00.453Z,12.51
2018-11-04T08:55:30.427Z,12.58
2018-11-04T08:58:00.475Z,12.61
2018-11-04T09:00:30.452Z,12.65
2018-11-04T09:03:00.490Z,12.68
2018-11-04T09:05:30.529Z,12.73
2018-11-04T09:08:00.535Z,12.77
2018-11-04T09:10:30.544Z,12.81
2018-11-04T09:13:00.531Z,12.84
2018-11-04T09:15:30.559Z,12.88
2018-11-04T09:18:00.544Z,12.93
2018-11-04T09:20:30.563Z,12.97
2018-11-04T09:23:00.591Z,13.01
2018-11-04T09:25:30.616Z,13.04
2018-11-04T09:28:00.629Z,13.07
2018-11-04T09:30:30.677Z,13.09
2018-11-04T09:33:00.713Z,13.12
2018-11-04T09:35:30.880Z,13.14
2018-11-04T09:38:00.711Z,13.16
2018-11-04T09:40:30.731Z,13.19
2018-11-04T09:43:00.773Z,13.24
2018-11-04T09:45:30.788Z,13.27
2018-11-04T09:48:00.793Z,13.30
2018-11-04T09:50:30.880Z,13.35
2018-11-04T09:53:00.848Z,13.39
2018-11-04T09:55:30.884Z,13.45
2018-11-04T09:58:00.931Z,13.50
2018-11-04T10:00:30.859Z,13.55
2018-11-04T10:03:00.899Z,13.62
2018-11-04T10:05:30.968Z,13.66
2018-11-04T10:08:00.973Z,13.72
2018-11-04T10:10:30.987Z,13.76
2018-11-04T10:13:01.032Z,13.82
2018-11-04T10:15:31.047Z,13.86
2018-11-04T10:18:01.067Z,13.89
2018-11-04T10:20:31.459Z,13.93
2018-11-04T10:23:01.128Z,13.96
2018-11-04T10:25:31.174Z,14.00
2018-11-04T10:28:01.216Z,14.02
2018-11-04T10:30:31.312Z,14.04
2018-11-04T10:33:01.246Z,14.07
2018-11-04T10:35:31.366Z,14.08
2018-11-04T10:38:01.436Z,14.09
2018-11-04T10:40:31.467Z,14.11
2018-11-04T10:43:01.469Z,14.13
2018-11-04T10:45:31.469Z,14.16
2018-11-04T10:48:01.507Z,14.19
2018-11-04T10:50:31.532Z,14.22
2018-11-04T10:53:01.552Z,14.23
2018-11-04T10:55:31.618Z,14.22
2018-11-04T10:58:01.658Z,14.22
2018-11-04T11:00:36.719Z,14.25
2018-11-04T11:03:06.938Z,14.26
2018-11-04T11:05:36.959Z,14.28
2018-11-04T11:08:06.932Z,14.32
2018-11-04T11:10:37.071Z,14.35
2018-11-04T11:13:07.367Z,14.37
2018-11-04T11:15:37.357Z,14.41
2018-11-04T11:18:07.944Z,14.45
2018-11-04T11:20:37.974Z,14.50
2018-11-04T11:23:08.093Z,14.54
2018-11-04T11:25:38.074Z,14.58
2018-11-04T11:28:08.080Z,14.58
2018-11-04T11:30:38.108Z,14.58
2018-11-04T11:33:08.134Z,14.57
2018-11-04T11:35:38.126Z,14.58
2018-11-04T11:38:08.233Z,14.59
2018-11-04T11:40:38.300Z,14.61
2018-11-04T11:43:08.404Z,14.65
2018-11-04T11:45:38.398Z,14.66
2018-11-04T11:48:09.393Z,14.69
2018-11-04T11:50:39.618Z,14.70
2018-11-04T11:53:09.612Z,14.71
2018-11-04T11:55:39.689Z,14.72
2018-11-04T11:58:09.694Z,14.73
2018-11-04T12:00:39.759Z,14.77
2018-11-04T12:03:09.817Z,14.79
2018-11-04T12:05:39.877Z,14.81
2018-11-04T12:08:09.975Z,14.82
2018-11-04T12:10:40.021Z,14.83
2018-11-04T12:13:10.045Z,14.85
2018-11-04T12:15:40.033Z,14.86
2018-11-04T12:18:10.055Z,14.88
2018-11-04T12:20:40.061Z,14.87
2018-11-04T12:23:10.148Z,14.89
2018-11-04T12:25:40.196Z,14.92
2018-11-04T12:28:10.274Z,14.94
2018-11-04T12:30:40.329Z,14.95
2018-11-04T12:33:10.300Z,14.97
2018-11-04T12:35:40.302Z,15.00
2018-11-04T12:38:10.321Z,15.03
2018-11-04T12:40:40.346Z,15.07
2018-11-04T12:43:10.324Z,15.12
2018-11-04T12:45:40.441Z,15.12
2018-11-04T12:48:10.380Z,15.15
2018-11-04T12:50:40.454Z,15.17
2018-11-04T12:53:10.424Z,15.18
2018-11-04T12:55:40.460Z,15.20
2018-11-04T12:58:10.460Z,15.18
2018-11-04T13:00:40.531Z,15.19
2018-11-04T13:03:10.584Z,15.20
2018-11-04T13:05:40.613Z,15.22
2018-11-04T13:08:10.580Z,15.26
2018-11-04T13:10:40.632Z,15.32
2018-11-04T13:13:10.664Z,15.36
2018-11-04T13:15:40.693Z,15.43
2018-11-04T13:18:10.983Z,15.48
2018-11-04T13:20:40.978Z,15.52
2018-11-04T13:23:11.016Z,15.58
2018-11-04T13:25:41.019Z,15.62
2018-11-04T13:28:11.035Z,15.66
2018-11-04T13:30:41.046Z,15.68
2018-11-04T13:33:11.127Z,15.68
2018-11-04T13:35:41.206Z,15.71
2018-11-04T13:38:11.195Z,15.73
2018-11-04T13:40:41.161Z,15.77
2018-11-04T13:43:11.382Z,15.79
2018-11-04T13:45:41.323Z,15.80
2018-11-04T13:48:11.344Z,15.81
2018-11-04T13:50:42.315Z,15.82
2018-11-04T13:53:12.370Z,15.82
2018-11-04T13:55:42.403Z,15.85
2018-11-04T13:58:12.361Z,15.88
2018-11-04T14:00:42.376Z,15.91
2018-11-04T14:03:12.395Z,15.93
2018-11-04T14:05:42.420Z,15.93
2018-11-04T14:08:12.419Z,15.88
2018-11-04T14:10:42.479Z,15.85
2018-11-04T14:13:12.481Z,15.84
2018-11-04T14:15:42.565Z,15.80
2018-11-04T14:18:12.682Z,15.76
2018-11-04T14:20:42.628Z,15.72
2018-11-04T14:23:12.709Z,15.68
2018-11-04T14:25:42.667Z,15.65
2018-11-04T14:28:12.678Z,15.60
2018-11-04T14:30:42.700Z,15.55
2018-11-04T14:33:12.747Z,15.50
2018-11-04T14:35:42.717Z,15.45
2018-11-04T14:38:12.759Z,15.40
2018-11-04T14:40:42.768Z,15.35
2018-11-04T14:43:12.804Z,15.31
2018-11-04T14:45:42.866Z,15.29
2018-11-04T14:48:12.856Z,15.28
2018-11-04T14:50:42.862Z,15.26
2018-11-04T14:53:12.844Z,15.25
2018-11-04T14:55:42.861Z,15.24
2018-11-04T14:58:12.817Z,15.23
2018-11-04T15:00:43.007Z,15.22
2018-11-04T15:03:13.019Z,15.19
2018-11-04T15:05:43.249Z,15.16
2018-11-04T15:08:13.415Z,15.15
2018-11-04T15:10:43.414Z,15.14
2018-11-04T15:13:13.522Z,15.13
2018-11-04T15:15:43.520Z,15.11
2018-11-04T15:18:13.577Z,15.11
2018-11-04T15:20:43.591Z,15.07
2018-11-04T15:23:13.582Z,15.04
2018-11-04T15:25:43.535Z,15.02
2018-11-04T15:28:13.544Z,14.99
2018-11-04T15:30:43.583Z,14.96
2018-11-04T15:33:13.545Z,14.93
2018-11-04T15:35:43.583Z,14.90
2018-11-04T15:38:13.740Z,14.89
2018-11-04T15:40:43.848Z,14.87
2018-11-04T15:43:13.656Z,14.85
2018-11-04T15:45:43.650Z,14.82
2018-11-04T15:48:14.407Z,14.77
2018-11-04T15:50:44.572Z,14.73
2018-11-04T15:53:14.574Z,14.70
2018-11-04T15:55:44.570Z,14.68
2018-11-04T15:58:14.686Z,14.67
2018-11-04T16:00:44.657Z,14.65
2018-11-04T16:03:14.717Z,14.64
2018-11-04T16:05:44.750Z,14.63
2018-11-04T16:08:14.773Z,14.62
2018-11-04T16:10:44.841Z,14.61
2018-11-04T16:13:14.907Z,14.60
2018-11-04T16:15:44.933Z,14.58
2018-11-04T16:18:15.070Z,14.57
2018-11-04T16:20:44.953Z,14.55
2018-11-04T16:23:14.940Z,14.52
2018-11-04T16:25:44.956Z,14.50
2018-11-04T16:28:15.054Z,14.46
2018-11-04T16:30:45.093Z,14.42
2018-11-04T16:33:15.245Z,14.39
2018-11-04T16:35:45.169Z,14.36
2018-11-04T16:38:15.257Z,14.32
2018-11-04T16:40:45.235Z,14.31
2018-11-04T16:43:15.294Z,14.28
2018-11-04T16:45:45.314Z,14.26
2018-11-04T16:48:15.358Z,14.23
2018-11-04T16:50:45.444Z,14.22
2018-11-04T16:53:15.450Z,14.18
2018-11-04T16:55:45.501Z,14.18
2018-11-04T16:58:15.479Z,14.17
2018-11-04T17:00:46.382Z,14.17
2018-11-04T17:03:16.381Z,14.13
2018-11-04T17:05:46.538Z,14.12
2018-11-04T17:08:16.471Z,14.09
2018-11-04T17:10:46.884Z,14.04
2018-11-04T17:13:16.862Z,13.99
2018-11-04T17:15:46.885Z,13.95
2018-11-04T17:18:17.020Z,13.90
2018-11-04T17:20:46.948Z,13.85
2018-11-04T17:23:17.446Z,13.81
2018-11-04T17:25:47.526Z,13.77
2018-11-04T17:28:17.595Z,13.73
2018-11-04T17:30:47.524Z,13.70
2018-11-04T17:33:17.647Z,13.66
2018-11-04T17:35:47.713Z,13.62
2018-11-04T17:38:17.721Z,13.57
2018-11-04T17:40:47.809Z,13.52
2018-11-04T17:43:17.853Z,13.48
2018-11-04T17:45:47.795Z,13.42
2018-11-04T17:48:17.837Z,13.38
2018-11-04T17:50:47.885Z,13.33
2018-11-04T17:53:18.008Z,13.28
2018-11-04T17:55:48.031Z,13.23
2018-11-04T17:58:18.056Z,13.18
2018-11-04T18:00:48.147Z,13.11
2018-11-04T18:03:18.184Z,13.07
2018-11-04T18:05:48.184Z,13.03
2018-11-04T18:08:18.242Z,12.98
2018-11-04T18:10:48.294Z,12.96
2018-11-04T18:13:18.839Z,12.93
2018-11-04T18:15:48.822Z,12.90
2018-11-04T18:18:18.851Z,12.85
2018-11-04T18:20:49.979Z,12.82
2018-11-04T18:23:20.793Z,12.78
2018-11-04T18:25:50.778Z,12.75
2018-11-04T18:28:20.709Z,12.74
2018-11-04T18:30:50.761Z,12.71
2018-11-04T18:33:20.753Z,12.68
2018-11-04T18:35:50.845Z,12.66
2018-11-04T18:38:20.853Z,12.63
2018-11-04T18:40:50.928Z,12.61
2018-11-04T18:43:21.023Z,12.57
2018-11-04T18:45:51.018Z,12.55
2018-11-04T18:48:21.016Z,12.51
2018-11-04T18:50:51.075Z,12.50
2018-11-04T18:53:21.119Z,12.48
2018-11-04T18:55:51.115Z,12.45
2018-11-04T18:58:21.619Z,12.43
2018-11-04T19:00:51.692Z,12.39
2018-11-04T19:03:21.819Z,12.35
2018-11-04T19:05:51.797Z,12.30
2018-11-04T19:08:21.910Z,12.26
2018-11-04T19:10:51.975Z,12.21
2018-11-04T19:13:21.953Z,12.16
2018-11-04T19:15:51.919Z,12.14
2018-11-04T19:18:21.984Z,12.10
2018-11-04T19:20:52.075Z,12.06
2018-11-04T19:23:22.119Z,12.02
2018-11-04T19:25:52.128Z,11.98
2018-11-04T19:28:22.213Z,11.94
2018-11-04T19:30:52.223Z,11.90
2018-11-04T19:33:22.324Z,11.85
2018-11-04T19:35:52.308Z,11.82
2018-11-04T19:38:22.374Z,11.79
2018-11-04T19:40:52.385Z,11.75
2018-11-04T19:43:22.539Z,11.71
2018-11-04T19:45:52.537Z,11.68
2018-11-04T19:48:22.631Z,11.64
2018-11-04T19:50:52.617Z,11.62
2018-11-04T19:53:22.732Z,11.58
2018-11-04T19:55:52.754Z,11.56
2018-11-04T19:58:22.802Z,11.54
2018-11-04T20:00:52.846Z,11.52
2018-11-04T20:03:22.729Z,11.49
2018-11-04T20:05:52.755Z,11.47
2018-11-04T20:08:22.798Z,11.44
2018-11-04T20:10:52.847Z,11.42
2018-11-04T20:13:27.938Z,11.40
2018-11-04T20:15:57.975Z,11.39
2018-11-04T20:18:33.069Z,11.37
2018-11-04T20:21:03.175Z,11.35
2018-11-04T20:23:33.159Z,11.35
2018-11-04T20:26:06.023Z,11.29
2018-11-04T20:28:36.059Z,11.33
2018-11-04T20:31:06.078Z,11.33
2018-11-04T20:33:36.011Z,11.32
2018-11-04T20:36:06.106Z,11.30
2018-11-04T20:38:41.176Z,11.30
2018-11-04T20:41:30.347Z,11.30
2018-11-04T20:44:00.851Z,11.28
2018-11-04T20:46:30.891Z,11.26
2018-11-04T20:49:06.031Z,11.26
2018-11-04T20:51:36.131Z,11.25
2018-11-04T20:54:06.704Z,11.23
2018-11-04T20:56:41.573Z,11.22
2018-11-04T20:59:11.608Z,11.21
2018-11-04T21:01:41.628Z,11.21
2018-11-04T21:04:11.714Z,11.20
2018-11-04T21:06:41.714Z,11.21
2018-11-04T21:09:12.320Z,11.22
2018-11-04T21:11:42.394Z,11.23
2018-11-04T21:14:12.470Z,11.22
2018-11-04T21:16:42.714Z,11.23
2018-11-04T21:19:12.535Z,11.23
2018-11-04T21:21:42.640Z,11.23
2018-11-04T21:24:12.599Z,11.22
2018-11-04T21:26:42.668Z,11.21
2018-11-04T21:29:12.765Z,11.21
2018-11-04T21:31:42.737Z,11.19
2018-11-04T21:34:12.711Z,11.17
2018-11-04T21:36:42.806Z,11.16
2018-11-04T21:39:13.144Z,11.14
2018-11-04T21:41:43.113Z,11.12
2018-11-04T21:44:13.281Z,11.11
2018-11-04T21:46:43.219Z,11.09
2018-11-04T21:49:13.256Z,11.07
2018-11-04T21:51:43.260Z,11.05
2018-11-04T21:54:13.269Z,11.03
2018-11-04T21:56:43.247Z,11.00
2018-11-04T21:59:13.256Z,10.97
2018-11-04T22:01:43.247Z,10.94
2018-11-04T22:04:13.393Z,10.90
2018-11-04T22:06:43.291Z,10.87
2018-11-04T22:09:13.349Z,10.84
2018-11-04T22:11:43.807Z,10.82
2018-11-04T22:14:13.755Z,10.80
2018-11-04T22:16:43.722Z,10.78
2018-11-04T22:19:13.752Z,10.76
2018-11-04T22:21:43.792Z,10.74
2018-11-04T22:24:13.800Z,10.70
2018-11-04T22:26:43.785Z,10.67
2018-11-04T22:29:13.789Z,10.62
2018-11-04T22:31:43.784Z,10.57
2018-11-04T22:34:13.808Z,10.51
2018-11-04T22:36:43.944Z,10.47
2018-11-04T22:39:13.818Z,10.41
2018-11-04T22:41:43.882Z,10.36
2018-11-04T22:44:13.887Z,10.29
2018-11-04T22:46:43.894Z,10.25
2018-11-04T22:49:13.858Z,10.19
2018-11-04T22:51:43.878Z,10.15
2018-11-04T22:54:13.943Z,10.10
2018-11-04T22:56:43.971Z,10.06
2018-11-04T22:59:13.991Z,10.02
2018-11-04T23:01:44.023Z,9.99
2018-11-04T23:04:14.152Z,9.94
2018-11-04T23:06:44.080Z,9.91
2018-11-04T23:09:14.152Z,9.88
2018-11-04T23:11:44.093Z,9.83
2018-11-04T23:14:14.215Z,9.80
2018-11-04T23:16:44.167Z,9.76
2018-11-04T23:19:14.448Z,9.72
2018-11-04T23:21:44.422Z,9.68
2018-11-04T23:24:14.634Z,9.65
2018-11-04T23:26:44.703Z,9.61
2018-11-04T23:29:14.771Z,9.57
2018-11-04T23:31:44.757Z,9.53
2018-11-04T23:34:14.616Z,9.48
2018-11-04T23:36:44.660Z,9.43
2018-11-04T23:39:14.599Z,9.41
2018-11-04T23:41:44.626Z,9.36
2018-11-04T23:44:14.634Z,9.31
2018-11-04T23:46:44.643Z,9.29
2018-11-04T23:49:14.652Z,9.25
2018-11-04T23:51:44.650Z,9.20
2018-11-04T23:54:14.637Z,9.17
2018-11-04T23:56:44.627Z,9.15
2018-11-04T23:59:14.647Z,9.13
